createdAt,value
2023-01-15T00:00:02.998Z,21.02
2023-01-15T00:02:33.217Z,21.69
2023-01-15T00:05:03.209Z,20.97
2023-01-15T00:07:32.865Z,24.34
2023-01-15T00:10:00.639Z,22.27
2023-01-15T00:12:28.342Z,31.29
2023-01-15T00:14:57.964Z,36.01
2023-01-15T00:17:25.883Z,36.21
2023-01-15T00:19:53.634Z,38.38
2023-01-15T00:22:21.323Z,14.21
2023-01-15T00:25:10.010Z,12.36
2023-01-15T00:27:40.803Z,11.97
2023-01-15T00:30:12.249Z,11.93
2023-01-15T00:32:40.363Z,11.26
2023-01-15T00:35:09.440Z,11.35
2023-01-15T00:37:37.088Z,11.45
2023-01-15T00:40:07.217Z,11.68
2023-01-15T00:42:34.986Z,10.61
2023-01-15T00:45:09.918Z,11.38
2023-01-15T00:47:38.510Z,11.28
2023-01-15T00:50:07.919Z,11.34
2023-01-15T00:52:35.871Z,11.01
2023-01-15T00:55:04.105Z,10.25
2023-01-15T00:57:33.383Z,11.25
2023-01-15T01:00:01.222Z,12.02
2023-01-15T01:02:29.197Z,11.53
2023-01-15T01:04:57.032Z,11.00
2023-01-15T01:07:24.777Z,10.67
2023-01-15T01:09:52.456Z,11.68
2023-01-15T01:12:21.601Z,10.69
2023-01-15T01:14:50.636Z,10.18
2023-01-15T01:17:18.366Z,10.48
2023-01-15T01:19:46.172Z,10.03
2023-01-15T01:22:13.886Z,9.69
2023-01-15T01:24:41.777Z,9.92
2023-01-15T01:27:09.498Z,10.01
2023-01-15T01:29:37.290Z,11.01
2023-01-15T01:32:06.996Z,10.39
2023-01-15T01:34:35.661Z,10.12
2023-01-15T01:37:03.375Z,10.87
2023-01-15T01:39:31.079Z,11.32
2023-01-15T01:41:58.792Z,9.98
2023-01-15T01:45:06.329Z,10.59
2023-01-15T01:47:36.704Z,10.82
2023-01-15T01:50:10.321Z,10.51
2023-01-15T01:52:42.055Z,10.86
2023-01-15T01:55:11.460Z,10.94
2023-01-15T01:57:41.824Z,9.95
2023-01-15T02:00:11.565Z,10.01
2023-01-15T02:02:47.208Z,9.96
2023-01-15T02:05:21.597Z,10.50
2023-01-15T02:07:49.281Z,10.64
2023-01-15T02:10:18.082Z,10.26
2023-01-15T02:12:53.046Z,9.92
2023-01-15T02:15:29.331Z,10.66
2023-01-15T02:18:06.982Z,10.36
2023-01-15T02:20:40.534Z,10.64
2023-01-15T02:23:24.609Z,10.74
2023-01-15T02:26:27.239Z,10.82
2023-01-15T02:28:59.772Z,10.39
2023-01-15T02:31:35.237Z,10.16
2023-01-15T02:34:07.792Z,10.87
2023-01-15T02:36:40.517Z,10.62
2023-01-15T02:39:16.048Z,10.39
2023-01-15T02:41:47.722Z,10.52
2023-01-15T02:44:21.147Z,10.33
2023-01-15T02:46:51.076Z,10.64
2023-01-15T02:49:23.685Z,11.07
2023-01-15T02:51:57.111Z,11.22
2023-01-15T02:54:30.390Z,10.82
2023-01-15T02:57:01.004Z,10.85
2023-01-15T02:59:34.725Z,10.87
2023-01-15T03:02:07.206Z,11.34
2023-01-15T03:04:42.597Z,11.24
2023-01-15T03:07:15.745Z,10.88
2023-01-15T03:09:44.769Z,11.21
2023-01-15T03:12:18.382Z,11.41
2023-01-15T03:14:55.411Z,11.32
2023-01-15T03:17:28.001Z,11.32
2023-01-15T03:20:03.313Z,10.65
2023-01-15T03:22:34.355Z,11.51
2023-01-15T03:25:04.935Z,11.00
2023-01-15T03:27:38.107Z,10.68
2023-01-15T03:30:10.114Z,10.98
2023-01-15T03:32:38.601Z,10.81
2023-01-15T03:35:10.607Z,11.44
2023-01-15T03:37:44.328Z,11.19
2023-01-15T03:40:13.460Z,11.07
2023-01-15T03:42:50.083Z,10.75
2023-01-15T03:45:27.535Z,11.15
2023-01-15T03:48:02.851Z,10.88
2023-01-15T03:50:41.741Z,11.15
2023-01-15T03:53:16.292Z,11.34
2023-01-15T03:55:56.011Z,10.98
2023-01-15T03:58:30.376Z,10.68
2023-01-15T04:01:04.785Z,11.35
2023-01-15T04:03:35.256Z,10.95
2023-01-15T04:06:05.937Z,10.75
2023-01-15T04:08:38.640Z,11.01
2023-01-15T04:11:06.704Z,10.24
2023-01-15T04:13:42.428Z,10.77
2023-01-15T04:16:29.241Z,10.89
2023-01-15T04:18:57.613Z,10.90
2023-01-15T04:21:26.680Z,10.71
2023-01-15T04:23:54.809Z,10.93
2023-01-15T04:26:22.925Z,10.57
2023-01-15T04:28:50.962Z,10.99
2023-01-15T04:31:19.061Z,11.10
2023-01-15T04:33:48.348Z,10.55
2023-01-15T04:36:16.296Z,11.03
2023-01-15T04:38:44.212Z,11.16
2023-01-15T04:41:30.110Z,11.15
2023-01-15T04:44:10.421Z,10.78
2023-01-15T04:46:40.590Z,10.82
2023-01-15T04:49:11.620Z,11.02
2023-01-15T04:51:39.969Z,10.86
2023-01-15T04:54:10.418Z,10.70
2023-01-15T04:56:40.872Z,10.94
2023-01-15T04:59:11.227Z,10.72
2023-01-15T05:01:39.604Z,10.74
2023-01-15T05:04:09.478Z,11.14
2023-01-15T05:06:37.691Z,10.67
2023-01-15T05:09:06.903Z,10.68
2023-01-15T05:11:37.065Z,10.39
2023-01-15T05:14:05.357Z,10.93
2023-01-15T05:16:35.172Z,11.30
2023-01-15T05:19:04.958Z,11.14
2023-01-15T05:21:36.563Z,10.79
2023-01-15T05:24:08.708Z,10.54
2023-01-15T05:26:37.150Z,10.54
2023-01-15T05:29:06.114Z,10.62
2023-01-15T05:31:34.693Z,10.66
2023-01-15T05:34:02.800Z,10.19
2023-01-15T05:36:32.808Z,10.12
2023-01-15T05:39:02.664Z,10.60
2023-01-15T05:41:49.255Z,9.95
2023-01-15T05:44:19.731Z,9.85
2023-01-15T05:46:48.882Z,10.63
2023-01-15T05:49:19.402Z,11.34
2023-01-15T05:51:47.675Z,11.02
2023-01-15T05:54:19.151Z,10.61
2023-01-15T05:56:47.821Z,11.09
2023-01-15T05:59:16.928Z,10.77
2023-01-15T06:01:45.234Z,10.81
2023-01-15T06:04:14.641Z,10.43
2023-01-15T06:06:43.382Z,10.67
2023-01-15T06:09:11.812Z,10.56
2023-01-15T06:11:41.653Z,10.54
2023-01-15T06:14:09.673Z,10.61
2023-01-15T06:16:39.159Z,10.28
2023-01-15T06:19:09.257Z,10.75
2023-01-15T06:21:37.425Z,10.83
2023-01-15T06:24:05.844Z,10.38
2023-01-15T06:26:33.754Z,10.35
2023-01-15T06:29:02.941Z,10.54
2023-01-15T06:31:32.517Z,10.16
2023-01-15T06:34:00.602Z,10.57
2023-01-15T06:36:29.362Z,10.63
2023-01-15T06:38:57.371Z,10.02
2023-01-15T06:41:44.360Z,10.26
2023-01-15T06:44:32.416Z,9.89
2023-01-15T06:47:22.685Z,10.18
2023-01-15T06:49:53.390Z,9.94
2023-01-15T06:52:21.432Z,10.02
2023-01-15T06:54:49.534Z,10.64
2023-01-15T06:57:18.869Z,10.33
2023-01-15T06:59:48.343Z,10.05
2023-01-15T07:02:17.944Z,10.75
2023-01-15T07:04:46.065Z,10.58
2023-01-15T07:07:15.193Z,10.59
2023-01-15T07:09:43.114Z,10.33
2023-01-15T07:12:11.046Z,10.22
2023-01-15T07:14:39.002Z,10.33
2023-01-15T07:17:08.283Z,9.86
2023-01-15T07:19:36.376Z,10.00
2023-01-15T07:22:04.698Z,10.83
2023-01-15T07:24:32.869Z,10.51
2023-01-15T07:27:00.979Z,10.39
2023-01-15T07:29:30.799Z,10.66
2023-01-15T07:32:02.252Z,10.28
2023-01-15T07:34:31.450Z,10.36
2023-01-15T07:36:59.202Z,10.75
2023-01-15T07:39:28.347Z,10.29
2023-01-15T07:42:13.767Z,10.47
2023-01-15T07:44:58.935Z,9.97
2023-01-15T07:47:45.237Z,10.44
2023-01-15T07:50:16.565Z,10.14
2023-01-15T07:52:44.654Z,10.44
2023-01-15T07:55:13.640Z,10.14
2023-01-15T07:57:42.695Z,10.58
2023-01-15T08:00:14.560Z,10.37
2023-01-15T08:02:42.855Z,10.42
2023-01-15T08:05:12.430Z,10.47
2023-01-15T08:07:42.913Z,10.34
2023-01-15T08:10:12.612Z,10.41
2023-01-15T08:12:58.172Z,10.97
2023-01-15T08:15:26.153Z,10.75
2023-01-15T08:17:54.133Z,10.97
2023-01-15T08:20:24.350Z,10.50
2023-01-15T08:22:54.020Z,10.91
2023-01-15T08:25:24.322Z,10.43
2023-01-15T08:27:53.126Z,10.68
2023-01-15T08:30:23.725Z,10.34
2023-01-15T08:32:51.739Z,10.62
2023-01-15T08:35:19.759Z,10.46
2023-01-15T08:37:47.714Z,10.28
2023-01-15T08:40:17.023Z,9.95
2023-01-15T08:42:45.027Z,10.18
2023-01-15T08:45:13.103Z,10.66
2023-01-15T08:47:40.922Z,10.47
2023-01-15T08:50:10.334Z,10.28
2023-01-15T08:52:39.420Z,10.66
2023-01-15T08:55:08.343Z,10.37
2023-01-15T08:57:38.561Z,10.35
2023-01-15T09:00:08.157Z,10.61
2023-01-15T09:02:36.112Z,10.28
2023-01-15T09:05:04.276Z,9.94
2023-01-15T09:07:32.304Z,10.41
2023-01-15T09:10:00.252Z,10.26
2023-01-15T09:12:29.368Z,10.39
2023-01-15T09:15:02.755Z,10.49
2023-01-15T09:17:32.551Z,10.36
2023-01-15T09:20:03.197Z,10.21
2023-01-15T09:22:31.531Z,10.98
2023-01-15T09:24:59.921Z,10.44
2023-01-15T09:27:28.691Z,11.34
2023-01-15T09:29:58.841Z,10.51
2023-01-15T09:32:26.857Z,10.70
2023-01-15T09:34:54.824Z,11.14
2023-01-15T09:37:22.898Z,10.82
2023-01-15T09:39:50.964Z,10.71
2023-01-15T09:42:33.176Z,10.83
2023-01-15T09:45:18.351Z,10.62
2023-01-15T09:47:58.936Z,11.54
2023-01-15T09:50:36.174Z,11.38
2023-01-15T09:53:18.854Z,11.37
2023-01-15T09:55:49.384Z,11.43
2023-01-15T09:58:20.679Z,10.98
2023-01-15T10:00:51.417Z,12.11
2023-01-15T10:03:30.116Z,11.95
2023-01-15T10:06:06.599Z,11.94
2023-01-15T10:08:38.212Z,11.87
2023-01-15T10:11:22.132Z,11.15
2023-01-15T10:13:54.796Z,12.25
2023-01-15T10:16:26.833Z,11.98
2023-01-15T10:18:55.827Z,11.93
2023-01-15T10:21:31.139Z,11.68
2023-01-15T10:24:06.593Z,12.01
2023-01-15T10:26:38.030Z,11.43
2023-01-15T10:29:16.688Z,11.13
2023-01-15T10:47:49.449Z,8.86
2023-01-15T10:50:20.306Z,8.87
2023-01-15T10:52:51.627Z,8.83
2023-01-15T10:55:24.826Z,8.44
2023-01-15T10:58:09.957Z,8.84
2023-01-15T11:00:39.903Z,9.07
2023-01-15T11:03:16.548Z,9.38
2023-01-15T11:05:45.891Z,9.11
2023-01-15T11:11:20.102Z,9.10
2023-01-15T11:14:14.789Z,9.28
2023-01-15T11:17:01.634Z,9.10
2023-01-15T11:19:38.207Z,9.10
2023-01-15T11:22:11.909Z,9.25
2023-01-15T11:24:47.676Z,9.52
2023-01-15T11:27:19.143Z,9.73
2023-01-15T11:29:52.470Z,9.61
2023-01-15T11:32:31.033Z,9.91
2023-01-15T11:35:01.564Z,10.21
2023-01-15T11:37:30.262Z,10.05
2023-01-15T11:40:05.685Z,10.35
2023-01-15T11:42:51.343Z,9.91
2023-01-15T11:45:38.764Z,10.41
2023-01-15T11:48:34.199Z,10.11
2023-01-15T11:51:08.549Z,10.03
2023-01-15T11:53:41.988Z,10.15
2023-01-15T11:56:14.434Z,9.85
2023-01-15T11:58:46.520Z,10.17
2023-01-15T12:01:17.116Z,10.08
2023-01-15T12:03:45.362Z,10.27
2023-01-15T12:06:17.057Z,9.75
2023-01-15T12:08:50.539Z,9.94
2023-01-15T12:11:40.905Z,10.22
2023-01-15T12:14:32.632Z,10.34
2023-01-15T12:17:07.659Z,9.58
2023-01-15T12:19:45.079Z,10.13
2023-01-15T12:22:33.206Z,9.98
2023-01-15T12:25:15.192Z,9.71
2023-01-15T12:27:53.907Z,10.56
2023-01-15T12:30:28.884Z,10.22
2023-01-15T12:33:04.978Z,10.20
2023-01-15T12:35:35.950Z,9.98
2023-01-15T12:38:14.529Z,10.15
2023-01-15T12:40:49.075Z,10.00
2023-01-15T12:43:40.567Z,10.18
2023-01-15T12:46:12.332Z,10.48
2023-01-15T12:48:47.080Z,9.89
2023-01-15T12:51:24.523Z,10.50
2023-01-15T12:54:00.183Z,10.34
2023-01-15T12:56:32.029Z,9.66
2023-01-15T12:59:06.973Z,9.62
2023-01-15T13:01:39.940Z,9.75
2023-01-15T13:04:14.055Z,10.46
2023-01-15T13:06:48.597Z,10.40
2023-01-15T13:09:30.531Z,10.31
2023-01-15T13:11:58.478Z,10.40
2023-01-15T13:14:26.669Z,10.24
2023-01-15T13:16:59.343Z,9.90
2023-01-15T13:19:36.100Z,9.79
2023-01-15T13:22:08.239Z,9.85
2023-01-15T13:25:02.722Z,9.58
2023-01-15T13:27:50.752Z,9.87
2023-01-15T13:30:34.780Z,9.93
2023-01-15T13:33:19.723Z,10.06
2023-01-15T13:35:50.856Z,9.95
2023-01-15T13:38:22.266Z,9.84
2023-01-15T13:40:53.912Z,10.24
2023-01-15T13:43:33.560Z,10.34
2023-01-15T13:46:04.279Z,9.66
2023-01-15T13:48:36.493Z,9.95
2023-01-15T13:51:06.892Z,9.96
2023-01-15T13:53:38.257Z,10.31
2023-01-15T13:56:10.671Z,10.41
2023-01-15T13:58:42.779Z,10.23
2023-01-15T14:01:25.047Z,10.17
2023-01-15T14:04:01.153Z,10.13
2023-01-15T14:06:40.865Z,10.07
2023-01-15T14:09:16.685Z,10.13
2023-01-15T14:12:02.755Z,10.17
2023-01-15T14:15:00.568Z,9.97
2023-01-15T14:17:49.313Z,9.65
2023-01-15T14:20:37.915Z,9.96
2023-01-15T14:23:25.410Z,10.06
2023-01-15T14:26:03.741Z,9.74
2023-01-15T14:28:47.856Z,9.50
2023-01-15T14:31:37.920Z,9.62
2023-01-15T14:34:14.557Z,9.86
2023-01-15T14:36:50.039Z,10.08
2023-01-15T14:39:39.625Z,9.68
2023-01-15T14:42:28.751Z,9.88
2023-01-15T14:45:04.129Z,10.35
2023-01-15T14:47:36.760Z,10.14
2023-01-15T14:50:26.349Z,10.11
2023-01-15T14:52:56.116Z,9.98
2023-01-15T14:55:24.258Z,9.65
2023-01-15T14:57:59.357Z,9.83
2023-01-15T15:00:35.102Z,9.60
2023-01-15T15:03:06.190Z,9.34
2023-01-15T15:05:35.449Z,9.91
2023-01-15T15:08:05.350Z,9.32
2023-01-15T15:10:36.992Z,9.71
2023-01-15T15:13:14.720Z,10.26
2023-01-15T15:15:51.805Z,9.77
2023-01-15T15:18:29.382Z,9.95
2023-01-15T15:54:35.422Z,9.31
2023-01-15T15:57:09.334Z,9.37
2023-01-15T15:59:38.962Z,9.30
2023-01-15T16:02:17.825Z,9.05
2023-01-15T16:04:46.864Z,9.19
2023-01-15T16:07:15.791Z,9.17
2023-01-15T16:09:50.395Z,9.41
2023-01-15T16:12:18.688Z,9.44
2023-01-15T16:14:46.616Z,9.15
2023-01-15T16:17:16.120Z,8.99
2023-01-15T16:19:44.752Z,9.20
2023-01-15T16:22:16.875Z,9.59
2023-01-15T16:24:56.647Z,8.92
2023-01-15T16:27:28.036Z,9.32
2023-01-15T16:29:56.074Z,9.41
2023-01-15T16:32:26.122Z,9.26
2023-01-15T16:35:01.524Z,9.41
2023-01-15T16:37:31.290Z,9.06
2023-01-15T16:40:03.804Z,9.06
2023-01-15T16:42:36.521Z,9.10
2023-01-15T16:45:14.745Z,9.23
2023-01-15T16:48:01.929Z,9.23
2023-01-15T16:50:33.995Z,9.21
2023-01-15T16:53:02.786Z,9.26
2023-01-15T16:55:41.497Z,9.42
2023-01-15T16:58:20.938Z,9.47
2023-01-15T17:00:52.891Z,9.32
2023-01-15T17:03:22.591Z,9.59
2023-01-15T17:05:52.917Z,9.60
2023-01-15T17:08:22.559Z,9.58
2023-01-15T17:10:57.494Z,9.10
2023-01-15T17:13:32.422Z,9.26
2023-01-15T17:16:06.989Z,9.38
2023-01-15T17:18:34.994Z,9.48
2023-01-15T17:21:02.999Z,9.54
2023-01-15T17:23:36.572Z,9.80
2023-01-15T17:26:16.574Z,9.53
2023-01-15T17:28:44.667Z,9.49
2023-01-15T17:31:23.056Z,10.12
2023-01-15T17:33:51.588Z,10.15
2023-01-15T17:36:20.024Z,9.51
2023-01-15T17:38:48.158Z,9.65
2023-01-15T17:41:18.683Z,9.21
2023-01-15T17:43:49.589Z,9.65
2023-01-15T17:46:20.430Z,9.79
2023-01-15T17:48:48.243Z,9.52
2023-01-15T17:51:18.290Z,9.99
2023-01-15T17:53:46.284Z,9.45
2023-01-15T17:56:31.302Z,9.33
2023-01-15T17:59:18.136Z,9.65
2023-01-15T18:02:05.685Z,9.97
2023-01-15T18:04:55.867Z,9.41
2023-01-15T18:07:28.201Z,9.79
2023-01-15T18:09:57.268Z,9.80
2023-01-15T18:12:25.097Z,9.62
2023-01-15T18:14:54.443Z,9.58
2023-01-15T18:17:22.303Z,9.83
2023-01-15T18:19:50.431Z,9.30
2023-01-15T18:22:19.002Z,9.55
2023-01-15T18:24:46.742Z,9.49
2023-01-15T18:27:14.514Z,9.76
2023-01-15T18:29:42.847Z,9.63
2023-01-15T18:32:11.906Z,9.72
2023-01-15T18:34:39.717Z,9.45
2023-01-15T18:37:08.136Z,9.48
2023-01-15T18:39:37.131Z,8.94
2023-01-15T18:42:22.864Z,9.57
2023-01-15T18:45:08.491Z,9.17
2023-01-15T18:47:38.091Z,9.15
2023-01-15T18:50:06.823Z,9.32
2023-01-15T18:52:51.050Z,9.28
2023-01-15T18:55:20.247Z,9.39
2023-01-15T18:57:48.439Z,9.51
2023-01-15T19:00:17.972Z,9.45
2023-01-15T19:02:47.565Z,9.39
2023-01-15T19:05:17.198Z,9.24
2023-01-15T19:07:45.786Z,9.40
2023-01-15T19:10:15.271Z,9.52
2023-01-15T19:12:44.757Z,9.60
2023-01-15T19:15:32.109Z,9.93
2023-01-15T19:18:19.029Z,9.90
2023-01-15T19:20:47.271Z,9.86
2023-01-15T19:23:15.594Z,9.73
2023-01-15T19:25:45.517Z,9.63
2023-01-15T19:28:16.845Z,9.03
2023-01-15T19:31:06.572Z,9.65
2023-01-15T19:33:36.566Z,9.96
2023-01-15T19:36:07.171Z,9.50
2023-01-15T19:38:36.831Z,9.71
2023-01-15T19:41:28.200Z,9.54
2023-01-15T19:44:14.138Z,9.52
2023-01-15T19:46:59.934Z,9.69
2023-01-15T19:49:51.555Z,9.48
2023-01-15T19:52:38.774Z,9.77
2023-01-15T19:55:10.843Z,9.44
2023-01-15T19:57:38.871Z,9.75
2023-01-15T20:00:08.723Z,9.62
2023-01-15T20:02:37.532Z,9.50
2023-01-15T20:05:08.422Z,9.42
2023-01-15T20:07:36.244Z,9.80
2023-01-15T20:10:05.024Z,9.48
2023-01-15T20:12:51.059Z,9.69
2023-01-15T20:15:19.300Z,9.46
2023-01-15T20:17:47.288Z,9.19
2023-01-15T20:20:16.549Z,9.48
2023-01-15T20:22:46.973Z,9.20
2023-01-15T20:25:15.085Z,9.11
2023-01-15T20:27:42.996Z,9.17
2023-01-15T20:30:14.387Z,9.16
2023-01-15T20:32:44.927Z,9.47
2023-01-15T20:35:15.128Z,9.26
2023-01-15T20:37:44.226Z,9.59
2023-01-15T20:40:13.115Z,9.40
2023-01-15T20:42:58.164Z,9.43
2023-01-15T20:45:26.599Z,9.46
2023-01-15T20:48:08.369Z,9.79
2023-01-15T20:50:37.454Z,9.68
2023-01-15T20:53:07.956Z,9.80
2023-01-15T20:55:53.844Z,9.63
2023-01-15T20:58:25.344Z,9.69
2023-01-15T21:00:53.745Z,9.33
2023-01-15T21:03:21.554Z,9.77
2023-01-15T21:05:49.402Z,9.68
2023-01-15T21:08:20.963Z,9.49
2023-01-15T21:10:53.091Z,9.75
2023-01-15T21:13:22.693Z,9.47
2023-01-15T21:15:58.881Z,9.67
2023-01-15T21:18:27.629Z,9.37
2023-01-15T21:20:55.457Z,9.46
2023-01-15T21:23:25.213Z,9.39
2023-01-15T21:26:00.023Z,9.40
2023-01-15T21:28:27.857Z,9.14
2023-01-15T21:30:55.546Z,9.20
2023-01-15T21:33:23.315Z,9.35
2023-01-15T21:35:50.986Z,9.19
2023-01-15T21:38:18.683Z,9.17
2023-01-15T21:40:47.771Z,9.18
2023-01-15T21:43:33.178Z,9.09
2023-01-15T21:46:05.014Z,9.14
2023-01-15T21:48:33.369Z,9.09
2023-01-15T21:51:05.137Z,8.83
2023-01-15T21:53:33.022Z,9.27
2023-01-15T21:56:02.159Z,9.40
2023-01-15T21:58:29.959Z,9.64
2023-01-15T22:00:58.064Z,9.15
2023-01-15T22:03:25.999Z,9.14
2023-01-15T22:05:53.789Z,8.94
2023-01-15T22:08:21.540Z,9.32
2023-01-15T22:10:49.837Z,9.43
2023-01-15T22:13:18.966Z,9.29
2023-01-15T22:15:54.603Z,9.41
2023-01-15T22:18:25.653Z,9.37
2023-01-15T22:20:58.101Z,9.03
2023-01-15T22:23:25.870Z,8.99
2023-01-15T22:25:53.882Z,8.99
2023-01-15T22:28:23.124Z,9.11
2023-01-15T22:30:51.166Z,8.95
2023-01-15T22:33:19.032Z,8.96
2023-01-15T22:35:56.284Z,8.98
2023-01-15T22:38:24.081Z,9.05
2023-01-15T22:40:51.893Z,8.81
2023-01-15T22:43:19.764Z,9.00
2023-01-15T22:45:48.941Z,8.55
2023-01-15T22:48:16.863Z,8.61
2023-01-15T22:50:44.668Z,8.70
2023-01-15T22:53:12.393Z,8.80
2023-01-15T22:55:40.116Z,8.73
2023-01-15T22:58:08.012Z,8.93
2023-01-15T23:00:35.776Z,8.83
2023-01-15T23:03:08.182Z,8.83
2023-01-15T23:05:38.826Z,8.77
2023-01-15T23:08:07.640Z,8.81
2023-01-15T23:10:35.547Z,8.88
2023-01-15T23:13:03.316Z,8.93
2023-01-15T23:15:31.096Z,8.94
2023-01-15T23:17:58.774Z,9.14
2023-01-15T23:20:27.852Z,9.16
2023-01-15T23:22:55.702Z,9.16
2023-01-15T23:25:23.718Z,8.96
2023-01-15T23:27:51.560Z,8.81
2023-01-15T23:30:19.538Z,9.00
2023-01-15T23:32:47.277Z,8.61
2023-01-15T23:35:15.163Z,8.47
2023-01-15T23:37:44.438Z,8.59
2023-01-15T23:40:13.234Z,8.61
2023-01-15T23:42:58.567Z,8.52
2023-01-15T23:45:43.938Z,8.92
2023-01-15T23:48:11.793Z,8.42
2023-01-15T23:50:39.519Z,8.48
2023-01-15T23:53:08.577Z,8.48
2023-01-15T23:55:36.376Z,8.38
2023-01-15T23:58:04.303Z,8.79
